Terminal Aerodrome Forecast
Issued by NWS Green Bay, WI

Home | Current Version | Previous Version | Graphics & Text | Print | Product List | Glossary On
Versions: 1 2 3 4 5 6 7 8 9 10 11 12 13 14 15 16 17 18
000
FTUS43 KGRB 222325
TAFGRB
TAF
KGRB 222325Z 2300/2324 21004KT P6SM SKC
     FM230300 VRB03KT P6SM SKC
      TEMPO 2307/2311 4SM BR
     FM231400 09005KT P6SM SCT250
     FM231900 13008G13KT P6SM SCT040 BKN200=

USA.gov is the U.S. government's official web portal to all federal, state and local government web resources and services.